AirNav   Duncan Aviation - Near you to keep you flying
 
 1342 users online  

LL52 Wilts Airport
Streator, Illinois, USA

GOING TO STREATOR?


FAA INFORMATION EFFECTIVE 01 DECEMBER 2022

Location

FAA Identifier: LL52
Lat/Long: 41-09-40.1000N 088-56-20.8000W
41-09.668333N 088-56.346667W
41.1611389,-88.9391111
(estimated)
Elevation: 650 ft. / 198 m (estimated)
From city: 5 miles NW of STREATOR, IL
Time zone: UTC -6 (UTC -5 during Daylight Saving Time)
Zip code: 61364

Airport Operations

Airport use: Private use. Permission required prior to landing
Activation date: 04/2006
Control tower: no
ARTCC: CHICAGO CENTER
FSS: KANKAKEE FLIGHT SERVICE STATION
Attendance: IRREG
Wind indicator: yes
Segmented circle: no

Airport Communications

WX AWOS-3 at VYS (15 nm NW): 120.025 (815-223-8442)

Nearby radio navigation aids

VOR radial/distance  VOR name  Freq  Var
PNTr332/22.4PONTIAC VOR/DME109.6003E
BDFr090/29.3BRADFORD VORTAC114.7000E
JOTr228/36.3JOLIET VOR/DME112.3002E

Airport Services

Runway Information

Runway 18/36

Dimensions: 2000 x 100 ft. / 610 x 30 m
Surface: turf
RUNWAY 18  RUNWAY 36
Traffic pattern: leftleft

Airport Ownership and Management from official FAA records

Ownership: Privately-owned
Owner: GEORGE WILTS
1547 EAST 12TH RD
STREATOR, IL 61364
Phone 815-672-0494
Manager: GEORGE WILTS
1547 EAST 12TH RD
STREATOR, IL 61364
Phone 815-672-0494

Airport Operational Statistics

Aircraft based on the field: 1
Single engine airplanes: 1
    

Additional Remarks

FOR CD CTC CHICAGO ARTCC AT 630-906-8921.

Instrument Procedures

There are no published instrument procedures at LL52.

Some nearby airports with instrument procedures:

KVYS - Illinois Valley Regional Airport-Walter A Duncan Field (15 nm NW)
KPNT - Pontiac Municipal Airport (20 nm SE)
C75 - Marshall County Airport (22 nm SW)
C09 - Morris Municipal Airport-James R. Washburn Field (28 nm NE)
3MY - Mount Hawley Auxiliary Airport (38 nm SW)
 
Loc | Ops | Rwys | IFR | FBO | Links
Com | Nav | Svcs | Stats | Notes
Area around LL52 (Wilts Airport)
 
Road maps at: MapQuest Bing Google
 
Aerial photo
No photo
 
Sectional chart

 
Airport distance calculator
Flying to Wilts Airport? Find the distance to fly.

From to LL52

Sunrise and sunset
Times for 07-Dec-2022
 Local
(UTC-6)
 Zulu
(UTC)
Morning civil twilight06:3812:38
Sunrise07:0913:09
Sunset16:2622:26
Evening civil twilight16:5722:57

Current date and time
Zulu (UTC)  07-Dec-2022 14:10:48
Local (UTC-6)  07-Dec-2022 08:10:48
 
METAR
KVYS 
15nm NW 
071355Z AUTO 12004KT 3SM BR OVC010 04/02 A3021 RMK AO2 T00400021
KPNT 
20nm SE 
071350Z AUTO 01003KT 1/4SM FG OVC002 04/04 A3023 RMK AO2 T00410041
KC75 
22nm SW 
071355Z AUTO 00000KT 3SM BR OVC010 03/03 A3023 RMK AO2 T00330026
KC09 
29nm NE 
071355Z AUTO 00000KT 1 1/4SM BR OVC013 03/03 A3021 RMK AO2 T00320032
TAF
KBMI 
42nm S 
071121Z 0712/0812 36004KT 3SM BR OVC003 TEMPO 0712/0714 1/2SM FG VV002 FM071600 VRB03KT P6SM BKN006 FM080100 05006KT P6SM BKN012
KPIA 
45nm SW 
071121Z 0712/0812 VRB03KT 1SM BR OVC004 TEMPO 0712/0714 1/2SM FG VV002 FM071600 VRB03KT 4SM BR BKN012 FM071800 31005KT P6SM BKN018 FM080000 04003KT P6SM SCT180 BKN250 FM080800 08008KT P6SM BKN180
NOTAMs
Click for the latest NOTAMs
NOTAMs are issued by the DoD/FAA and will open in a separate window not controlled by AirNav.

 

 
 

Would you like to see your business listed on this page?

 If your business provides an interesting product or service to pilots, flight crews, aircraft, or users of the Wilts Airport, you should consider listing it here.  To start the listing process, click on the button below
 
Add a business
 

Other Pages about Wilts Airport

Update a link
 
Copyright © AirNav, LLC. All rights reserved. Privacy Policy  Contact